Time;durP1;ratioP1;P1;durP2;ratioP2;P2;SDS_P1;SDS_P2;PMS_P1;PMS_P2;Temp;Humidity;BMP_temperature;BMP_pressure;BME280_temperature;BME280_humidity;BME280_pressure;Samples;Min_cycle;Max_cycle;Signal;HPM_P1;HPM_P2
2022/05/20 00:01:28;;;;;;;;;;;;;;;17.71;44.68;101790.47;5066788;28;855;-66
2022/05/20 00:03:53;;;;;;;;;;;;;;;17.66;45.01;101786.81;5056748;28;811;-65
2022/05/20 00:06:18;;;;;;;;;;;;;;;17.65;45.00;101796.16;5056275;28;923;-64
2022/05/20 00:08:44;;;;;;;;;;;;;;;17.66;44.82;101787.63;5056749;28;786;-65
2022/05/20 00:11:09;;;;;;;;;;;;;;;17.67;44.85;101788.47;5056544;28;951;-66
2022/05/20 00:13:35;;;;;;;;;;;;;;;17.61;44.93;101790.31;5061968;28;1225;-65
2022/05/20 00:16:00;;;;;;;;;;;;;;;17.61;44.75;101788.41;5059594;28;1960;-64
2022/05/20 00:18:26;;;;;;;;;;;;;;;17.67;44.84;101786.56;5056533;28;810;-65
2022/05/20 00:20:51;;;;;;;;;;;;;;;17.60;44.56;101785.94;5056523;28;817;-64
2022/05/20 00:23:17;;;;;;;;;;;;;;;17.59;44.80;101789.75;5056734;28;813;-62
2022/05/20 00:25:45;;;;;;;;;;;;;;;17.51;44.78;101779.19;5062779;28;808;-64
2022/05/20 00:28:11;;;;;;;;;;;;;;;17.53;44.51;101786.09;5056105;28;1431;-65
2022/05/20 00:30:36;;;;;;;;;;;;;;;17.54;44.57;101785.00;5057281;28;1162;-64
2022/05/20 00:33:02;;;;;;;;;;;;;;;17.52;44.47;101787.19;5056398;28;763;-64
2022/05/20 00:35:27;;;;;;;;;;;;;;;17.53;44.42;101782.50;5056076;28;1913;-64
2022/05/20 00:37:53;;;;;;;;;;;;;;;17.49;44.41;101782.22;5061887;28;1024;-65
2022/05/20 00:40:19;;;;;;;;;;;;;;;17.47;44.48;101772.53;5055944;28;838;-65
2022/05/20 00:42:45;;;;;;;;;;;;;;;17.51;44.41;101780.03;5056039;28;728;-65
2022/05/20 00:45:10;;;;;;;;;;;;;;;17.46;44.34;101771.72;5058679;28;871;-65
2022/05/20 00:47:36;;;;;;;;;;;;;;;17.44;44.22;101762.88;5059759;28;744;-65
2022/05/20 00:50:02;;;;;;;;;;;;;;;17.45;44.21;101776.38;5057752;28;950;-63
2022/05/20 00:52:29;;;;;;;;;;;;;;;17.43;44.31;101781.31;5060998;28;830;-64
2022/05/20 00:54:59;;;;;;;;;;;;;;;17.44;44.14;101774.69;5037393;28;1986;-64
2022/05/20 00:57:27;;;;;;;;;;;;;;;17.42;44.15;101782.38;5040041;28;829;-65
2022/05/20 01:00:04;;;;;;;;;;;;;;;17.38;44.29;101783.16;5075040;28;806;-64
2022/05/20 01:02:30;;;;;;;;;;;;;;;17.41;44.43;101780.72;5055854;28;835;-64
2022/05/20 01:04:56;;;;;;;;;;;;;;;17.41;44.53;101786.22;5062666;28;766;-63
2022/05/20 01:07:21;;;;;;;;;;;;;;;17.48;44.11;101785.22;5037432;28;1119;-64
2022/05/20 01:09:47;;;;;;;;;;;;;;;17.49;44.41;101781.34;5037698;28;877;-65
2022/05/20 01:12:12;;;;;;;;;;;;;;;17.42;44.57;101781.56;5056021;28;780;-64
2022/05/20 01:14:38;;;;;;;;;;;;;;;17.47;44.62;101789.03;5058568;28;1972;-65
2022/05/20 01:17:03;;;;;;;;;;;;;;;17.41;44.70;101783.47;5066221;28;958;-64
2022/05/20 01:19:43;;;;;;;;;;;;;;;17.45;44.47;101786.56;5059982;28;783;-65
2022/05/20 01:22:09;;;;;;;;;;;;;;;17.53;44.45;101779.75;5041558;28;1350;-66
2022/05/20 01:24:35;;;;;;;;;;;;;;;17.44;44.41;101773.88;5040983;28;845;-66
2022/05/20 01:27:00;;;;;;;;;;;;;;;17.45;44.56;101779.13;5059631;28;782;-65
2022/05/20 01:29:26;;;;;;;;;;;;;;;17.45;44.36;101781.88;5065844;28;806;-65
2022/05/20 01:31:51;;;;;;;;;;;;;;;17.37;44.55;101778.75;5041492;28;971;-67
2022/05/20 01:34:16;;;;;;;;;;;;;;;17.44;44.48;101785.69;5059250;28;1020;-66
2022/05/20 01:36:42;;;;;;;;;;;;;;;17.39;44.65;101782.91;5058930;28;1913;-65
2022/05/20 01:39:07;;;;;;;;;;;;;;;17.35;44.51;101781.75;5059247;28;841;-65
2022/05/20 01:41:45;;;;;;;;;;;;;;;17.35;44.67;101773.50;5065471;28;765;-65
2022/05/20 01:44:11;;;;;;;;;;;;;;;17.40;44.44;101780.97;5058935;28;845;-65
2022/05/20 01:46:39;;;;;;;;;;;;;;;17.32;44.52;101781.41;5064429;28;875;-65
2022/05/20 01:49:05;;;;;;;;;;;;;;;17.35;44.33;101779.00;5059504;28;821;-65
2022/05/20 01:51:32;;;;;;;;;;;;;;;17.37;44.24;101774.06;5059014;28;862;-65
2022/05/20 01:53:59;;;;;;;;;;;;;;;17.35;44.46;101768.00;5041878;28;843;-66
2022/05/20 01:56:29;;;;;;;;;;;;;;;17.33;44.33;101772.91;5045600;28;1906;-65
2022/05/20 01:58:59;;;;;;;;;;;;;;;17.33;44.08;101769.34;5039999;28;798;-65
2022/05/20 02:01:44;;;;;;;;;;;;;;;17.38;43.89;101775.72;5043853;28;864;-65
2022/05/20 02:04:10;;;;;;;;;;;;;;;17.41;44.24;101769.72;5041069;28;814;-64
2022/05/20 02:06:40;;;;;;;;;;;;;;;17.58;45.17;101774.34;5045317;28;865;-64
2022/05/20 02:09:07;;;;;;;;;;;;;;;17.82;46.40;101769.38;5042807;28;812;-65
2022/05/20 02:11:53;;;;;;;;;;;;;;;17.94;47.43;101772.84;5041120;28;849;-66
2022/05/20 02:14:21;;;;;;;;;;;;;;;18.13;48.46;101765.09;5071637;28;1330;-66
2022/05/20 02:16:48;;;;;;;;;;;;;;;18.30;48.99;101769.66;5063468;28;1978;-67
2022/05/20 02:19:15;;;;;;;;;;;;;;;18.39;49.42;101781.84;5044243;28;907;-67
2022/05/20 02:21:42;;;;;;;;;;;;;;;18.51;50.05;101770.66;5040575;28;972;-67
2022/05/20 02:24:09;;;;;;;;;;;;;;;18.58;50.12;101770.41;5040593;28;778;-66
2022/05/20 02:26:37;;;;;;;;;;;;;;;18.58;50.23;101773.16;5040478;28;738;-65
2022/05/20 02:29:03;;;;;;;;;;;;;;;18.42;48.90;101764.78;5040839;28;770;-66
2022/05/20 02:31:37;;;;;;;;;;;;;;;18.05;47.57;101770.22;5047109;28;923;-67
2022/05/20 02:34:03;;;;;;;;;;;;;;;17.77;45.59;101772.09;5039848;28;959;-66
2022/05/20 02:36:32;;;;;;;;;;;;;;;17.49;44.17;101770.34;5040436;28;1974;-66
2022/05/20 02:38:58;;;;;;;;;;;;;;;17.26;42.87;101770.38;5057883;28;1020;-64
2022/05/20 02:41:23;;;;;;;;;;;;;;;17.14;42.18;101763.28;5058134;28;846;-67
2022/05/20 02:43:48;;;;;;;;;;;;;;;16.92;41.53;101766.84;5058376;28;812;-66
2022/05/20 02:46:14;;;;;;;;;;;;;;;16.88;41.01;101766.50;5067120;28;832;-66
2022/05/20 02:48:39;;;;;;;;;;;;;;;16.72;40.78;101765.41;5057914;28;901;-67
2022/05/20 02:51:05;;;;;;;;;;;;;;;16.69;40.94;101774.16;5058041;28;865;-67
2022/05/20 02:53:30;;;;;;;;;;;;;;;16.83;41.86;101762.81;5058117;28;846;-65
2022/05/20 02:55:56;;;;;;;;;;;;;;;17.00;42.84;101768.31;5058466;28;1986;-64
2022/05/20 03:06:34;;;;;;;;;;;;;;;17.53;46.22;101777.00;5057671;28;802;-64
2022/05/20 03:08:59;;;;;;;;;;;;;;;17.70;47.54;101783.28;5058003;28;814;-68
2022/05/20 03:11:25;;;;;;;;;;;;;;;17.96;48.29;101772.59;5063679;28;795;-64
2022/05/20 03:13:50;;;;;;;;;;;;;;;18.10;49.32;101782.13;5057427;28;981;-67
2022/05/20 03:16:16;;;;;;;;;;;;;;;18.22;49.51;101775.63;5067959;28;1906;-65
2022/05/20 03:18:41;;;;;;;;;;;;;;;18.31;50.09;101765.78;5076746;28;848;-65
2022/05/20 03:21:07;;;;;;;;;;;;;;;18.44;50.28;101764.56;5076582;28;801;-65
2022/05/20 03:23:32;;;;;;;;;;;;;;;18.54;50.40;101769.31;5066275;28;849;-66
2022/05/20 03:25:58;;;;;;;;;;;;;;;18.56;50.35;101775.38;5057381;28;826;-66
2022/05/20 03:28:23;;;;;;;;;;;;;;;18.33;48.69;101779.28;5057057;28;802;-67
2022/05/20 03:30:49;;;;;;;;;;;;;;;18.00;47.48;101781.19;5062047;28;762;-65
2022/05/20 03:33:14;;;;;;;;;;;;;;;17.73;45.66;101776.44;5057252;28;817;-65
2022/05/20 03:35:40;;;;;;;;;;;;;;;17.51;43.88;101770.94;5060234;28;1906;-66
2022/05/20 03:38:05;;;;;;;;;;;;;;;17.31;42.59;101775.09;5056909;28;882;-64
2022/05/20 03:40:31;;;;;;;;;;;;;;;17.16;42.34;101778.44;5057297;28;794;-66
2022/05/20 03:42:57;;;;;;;;;;;;;;;17.04;41.75;101773.06;5057166;28;781;-63
2022/05/20 03:45:23;;;;;;;;;;;;;;;16.91;41.11;101770.66;5060064;28;762;-61
2022/05/20 03:47:48;;;;;;;;;;;;;;;16.87;40.63;101777.72;5056767;28;806;-61
2022/05/20 03:50:14;;;;;;;;;;;;;;;16.87;41.37;101766.72;5063528;28;818;-65
2022/05/20 03:52:40;;;;;;;;;;;;;;;17.21;44.31;101769.47;5056714;28;838;-66
2022/05/20 03:55:06;;;;;;;;;;;;;;;17.90;48.75;101781.88;5069498;28;1893;-66
2022/05/20 03:57:31;;;;;;;;;;;;;;;18.44;51.03;101787.41;5076027;28;755;-67
2022/05/20 03:59:57;;;;;;;;;;;;;;;18.86;52.69;101776.69;5075315;28;789;-66
2022/05/20 04:02:22;;;;;;;;;;;;;;;18.97;52.81;101778.44;5063528;28;793;-66
2022/05/20 04:04:51;;;;;;;;;;;;;;;18.76;51.69;101783.81;5057015;28;805;-66
2022/05/20 04:07:20;;;;;;;;;;;;;;;18.39;49.51;101790.09;5038420;28;1098;-65
2022/05/20 04:09:48;;;;;;;;;;;;;;;17.98;47.15;101786.94;5056421;28;823;-65
2022/05/20 04:12:33;;;;;;;;;;;;;;;17.60;45.22;101788.69;5056748;28;908;-66
2022/05/20 04:14:59;;;;;;;;;;;;;;;17.43;43.53;101789.56;5056195;28;1994;-66
2022/05/20 04:17:25;;;;;;;;;;;;;;;17.27;42.40;101788.50;5060932;28;802;-66
2022/05/20 04:19:50;;;;;;;;;;;;;;;17.04;41.55;101791.47;5056535;28;826;-66
2022/05/20 04:22:16;;;;;;;;;;;;;;;16.98;41.04;101792.47;5056018;28;819;-65
2022/05/20 04:24:42;;;;;;;;;;;;;;;16.87;40.54;101792.28;5055937;28;854;-66
2022/05/20 04:27:07;;;;;;;;;;;;;;;16.75;40.92;101786.88;5062721;28;830;-66
2022/05/20 04:29:33;;;;;;;;;;;;;;;16.96;41.53;101789.97;5055966;28;839;-65
2022/05/20 04:31:59;;;;;;;;;;;;;;;17.08;42.42;101787.13;5071605;28;852;-68
2022/05/20 04:34:25;;;;;;;;;;;;;;;17.28;43.74;101792.91;5075599;28;738;-66
2022/05/20 04:36:51;;;;;;;;;;;;;;;17.43;44.99;101792.31;5075144;28;1914;-66
2022/05/20 04:39:16;;;;;;;;;;;;;;;17.63;46.51;101793.66;5074932;28;925;-66
2022/05/20 04:47:23;;;;;;;;;;;;;;;18.27;50.40;101792.19;5057961;28;947;-66
2022/05/20 04:49:48;;;;;;;;;;;;;;;18.47;51.02;101786.88;5059872;28;778;-65
2022/05/20 04:52:14;;;;;;;;;;;;;;;18.84;51.88;101792.69;5063826;28;838;-65
2022/05/20 04:54:51;;;;;;;;;;;;;;;18.58;50.57;101790.56;5062539;28;1905;-66
2022/05/20 04:57:17;;;;;;;;;;;;;;;18.28;48.47;101802.09;5060197;28;821;-66
2022/05/20 04:59:43;;;;;;;;;;;;;;;18.09;45.95;101796.97;5059924;28;828;-66
2022/05/20 05:02:08;;;;;;;;;;;;;;;18.08;43.59;101797.22;5059837;28;967;-65
2022/05/20 05:04:34;;;;;;;;;;;;;;;17.69;42.65;101798.13;5059748;28;751;-66
2022/05/20 05:06:59;;;;;;;;;;;;;;;17.46;41.60;101796.47;5066566;28;842;-66
2022/05/20 05:09:25;;;;;;;;;;;;;;;17.30;41.26;101789.91;5059655;28;858;-66
2022/05/20 05:11:50;;;;;;;;;;;;;;;17.10;40.43;101802.28;5059847;28;774;-66
2022/05/20 05:14:16;;;;;;;;;;;;;;;17.09;40.61;101795.09;5059640;28;989;-67
2022/05/20 05:16:41;;;;;;;;;;;;;;;17.07;41.54;101797.28;5063932;28;1910;-66
2022/05/20 05:19:07;;;;;;;;;;;;;;;17.37;43.39;101796.06;5065619;28;1124;-66
2022/05/20 05:21:32;;;;;;;;;;;;;;;17.78;46.54;101807.59;5059883;28;817;-66
2022/05/20 05:24:00;;;;;;;;;;;;;;;18.21;49.33;101816.06;5059340;28;891;-66
2022/05/20 05:26:26;;;;;;;;;;;;;;;18.59;51.54;101817.00;5059557;28;850;-65
2022/05/20 05:28:52;;;;;;;;;;;;;;;19.00;52.31;101815.69;5059710;28;1044;-66
2022/05/20 05:31:17;;;;;;;;;;;;;;;19.19;52.91;101816.09;5068677;28;874;-65
2022/05/20 05:33:43;;;;;;;;;;;;;;;19.07;52.52;101822.66;5059496;28;801;-65
2022/05/20 05:36:09;;;;;;;;;;;;;;;18.72;50.55;101815.75;5059124;28;1914;-65
2022/05/20 05:38:34;;;;;;;;;;;;;;;18.35;48.40;101821.19;5059293;28;834;-65
2022/05/20 05:40:59;;;;;;;;;;;;;;;18.09;45.91;101809.88;5059303;28;854;-71
2022/05/20 05:43:26;;;;;;;;;;;;;;;17.78;44.10;101807.59;5047374;28;1031;-71
2022/05/20 05:45:52;;;;;;;;;;;;;;;17.56;42.62;101804.84;5059786;28;894;-69
2022/05/20 05:48:17;;;;;;;;;;;;;;;17.36;41.66;101808.16;5059162;28;795;-68
2022/05/20 05:50:43;;;;;;;;;;;;;;;17.28;41.06;101814.09;5058935;28;888;-65
2022/05/20 05:53:12;;;;;;;;;;;;;;;17.21;40.72;101806.00;5058950;28;809;-67
2022/05/20 05:55:38;;;;;;;;;;;;;;;17.13;41.49;101798.19;5069071;28;1981;-66
2022/05/20 05:58:04;;;;;;;;;;;;;;;17.06;41.46;101798.38;5070789;28;1178;-66
2022/05/20 06:00:29;;;;;;;;;;;;;;;16.97;41.09;101797.16;5062190;28;885;-66
2022/05/20 06:02:55;;;;;;;;;;;;;;;16.86;40.36;101796.13;5059191;28;869;-66
2022/05/20 06:05:20;;;;;;;;;;;;;;;16.89;39.96;101795.63;5058744;28;977;-67
2022/05/20 06:07:46;;;;;;;;;;;;;;;16.87;39.91;101796.94;5058087;28;1158;-66
2022/05/20 06:10:12;;;;;;;;;;;;;;;16.83;39.82;101796.63;5065124;28;845;-68
2022/05/20 06:12:37;;;;;;;;;;;;;;;16.82;39.92;101800.44;5058893;28;726;-71
2022/05/20 06:15:06;;;;;;;;;;;;;;;16.83;40.36;101802.13;5058348;28;1965;-66
2022/05/20 06:17:32;;;;;;;;;;;;;;;16.86;40.56;101795.28;5072607;28;822;-62
2022/05/20 06:19:58;;;;;;;;;;;;;;;17.24;43.77;101801.94;5058599;28;849;-66
2022/05/20 06:22:23;;;;;;;;;;;;;;;17.85;46.75;101798.31;5068163;28;1012;-65
2022/05/20 06:24:49;;;;;;;;;;;;;;;18.27;50.44;101804.03;5077711;28;750;-63
2022/05/20 06:27:14;;;;;;;;;;;;;;;18.70;52.60;101801.38;5078012;28;844;-68
2022/05/20 06:29:40;;;;;;;;;;;;;;;19.01;54.02;101798.06;5077473;28;910;-66
2022/05/20 06:32:05;;;;;;;;;;;;;;;19.22;54.50;101801.78;5061032;28;1049;-70
2022/05/20 06:39:48;;;;;;;;;;;;;;;19.24;54.68;101796.84;5064621;28;850;-63
2022/05/20 06:40:05;;;;;;;;;;;;;;;18.52;50.07;101805.34;5057896;28;810;-65
2022/05/20 06:42:31;;;;;;;;;;;;;;;18.36;48.62;101807.16;5057576;28;754;-66
2022/05/20 06:44:57;;;;;;;;;;;;;;;18.28;47.58;101805.69;5058767;28;910;-67
2022/05/20 06:47:23;;;;;;;;;;;;;;;18.21;47.01;101805.06;5057697;28;918;-64
2022/05/20 06:49:48;;;;;;;;;;;;;;;18.37;47.87;101808.81;5058120;28;821;-65
2022/05/20 06:52:14;;;;;;;;;;;;;;;18.76;50.52;101808.59;5057868;28;902;-66
2022/05/20 06:54:39;;;;;;;;;;;;;;;19.14;52.53;101806.69;5057798;28;1980;-65
2022/05/20 06:57:05;;;;;;;;;;;;;;;19.45;53.47;101808.81;5057750;28;853;-68
2022/05/20 06:59:30;;;;;;;;;;;;;;;19.62;54.44;101803.09;5062854;28;1108;-67
2022/05/20 07:02:00;;;;;;;;;;;;;;;19.85;54.70;101806.53;5062271;28;1390;-67
2022/05/20 07:04:27;;;;;;;;;;;;;;;20.11;54.46;101802.72;5057649;28;821;-71
2022/05/20 07:06:52;;;;;;;;;;;;;;;20.04;54.59;101804.94;5057784;28;941;-69
2022/05/20 07:09:18;;;;;;;;;;;;;;;19.63;52.48;101807.53;5069857;28;1012;-71
2022/05/20 07:11:43;;;;;;;;;;;;;;;19.21;50.06;101800.97;5075593;28;822;-65
2022/05/20 07:14:08;;;;;;;;;;;;;;;18.90;47.23;101798.00;5059169;28;1425;-69
2022/05/20 07:16:34;;;;;;;;;;;;;;;18.52;45.10;101797.09;5059102;28;1976;-71
2022/05/20 07:18:59;;;;;;;;;;;;;;;18.34;43.44;101809.34;5063922;28;1234;-69
2022/05/20 07:21:25;;;;;;;;;;;;;;;18.49;44.85;101800.38;5073483;28;1238;-67
2022/05/20 07:23:51;;;;;;;;;;;;;;;19.14;49.02;101792.91;5059742;28;845;-67
2022/05/20 07:26:17;;;;;;;;;;;;;;;19.53;51.69;101796.41;5063878;28;730;-66
2022/05/20 07:28:42;;;;;;;;;;;;;;;19.86;53.52;101789.69;5057262;28;799;-66
2022/05/20 07:31:08;;;;;;;;;;;;;;;20.26;54.20;101787.28;5056930;28;927;-65
2022/05/20 07:33:34;;;;;;;;;;;;;;;20.47;54.47;101788.97;5056929;28;889;-67
2022/05/20 07:35:59;;;;;;;;;;;;;;;20.06;55.53;101782.56;5058716;28;1917;-65
2022/05/20 07:38:25;;;;;;;;;;;;;;;19.81;55.23;101784.13;5061066;28;1202;-68
2022/05/20 07:40:50;;;;;;;;;;;;;;;18.28;57.46;101772.63;5069774;28;1051;-66
2022/05/20 07:43:16;;;;;;;;;;;;;;;18.88;54.52;101769.03;5057879;28;1162;-65
2022/05/20 07:45:41;;;;;;;;;;;;;;;19.04;51.19;101780.97;5065099;28;1245;-66
2022/05/20 07:48:07;;;;;;;;;;;;;;;19.04;49.06;101776.31;5075935;28;825;-65
2022/05/20 07:50:34;;;;;;;;;;;;;;;18.95;47.82;101770.47;5071285;28;790;-66
2022/05/20 07:55:44;;;;;;;;;;;;;;;18.85;45.94;101769.53;5041787;28;1980;-66
2022/05/20 07:58:10;;;;;;;;;;;;;;;18.80;45.18;101770.31;5056897;28;919;-64
2022/05/20 08:00:36;;;;;;;;;;;;;;;18.74;44.85;101768.63;5056675;28;774;-65
2022/05/20 08:03:01;;;;;;;;;;;;;;;18.73;44.75;101766.97;5044931;28;1354;-64
2022/05/20 08:05:28;;;;;;;;;;;;;;;18.77;44.42;101768.91;5064199;28;1175;-65
2022/05/20 08:07:55;;;;;;;;;;;;;;;18.70;44.37;101762.00;5056624;28;1079;-66
2022/05/20 08:10:21;;;;;;;;;;;;;;;18.66;44.10;101767.19;5067565;28;1217;-66
2022/05/20 08:12:46;;;;;;;;;;;;;;;18.67;43.63;101768.84;5068793;28;1242;-68
2022/05/20 08:15:12;;;;;;;;;;;;;;;18.68;44.51;101762.25;5065326;28;2032;-64
2022/05/20 08:17:40;;;;;;;;;;;;;;;19.00;45.97;101757.81;5069201;28;1195;-68
2022/05/20 08:20:07;;;;;;;;;;;;;;;19.17;47.71;101746.59;5069742;28;825;-61
2022/05/20 08:22:32;;;;;;;;;;;;;;;19.33;49.10;101759.38;5074914;28;843;-64
2022/05/20 08:24:58;;;;;;;;;;;;;;;19.51;50.03;101760.00;5060993;28;852;-63
2022/05/20 08:27:24;;;;;;;;;;;;;;;19.66;50.57;101755.38;5037493;28;869;-62
2022/05/20 08:29:50;;;;;;;;;;;;;;;19.77;50.64;101759.00;5056482;28;754;-63
2022/05/20 08:32:15;;;;;;;;;;;;;;;19.43;52.13;101770.47;5061762;28;840;-59
2022/05/20 08:34:42;;;;;;;;;;;;;;;19.06;50.56;101760.34;5055912;28;1909;-62
2022/05/20 08:37:08;;;;;;;;;;;;;;;18.32;49.83;101770.22;5055825;28;878;-63
2022/05/20 08:39:33;;;;;;;;;;;;;;;18.73;46.22;101761.44;5056378;28;853;-63
2022/05/20 08:41:59;;;;;;;;;;;;;;;18.92;44.10;101761.91;5059179;28;874;-63
2022/05/20 08:44:24;;;;;;;;;;;;;;;18.54;43.26;101763.81;5059302;28;1072;-61
2022/05/20 08:46:50;;;;;;;;;;;;;;;18.43;42.37;101755.44;5061878;28;1257;-63
2022/05/20 08:49:17;;;;;;;;;;;;;;;18.54;42.25;101756.38;5056402;28;933;-63
2022/05/20 08:51:45;;;;;;;;;;;;;;;18.72;42.65;101754.28;5056339;28;1154;-62
2022/05/20 08:54:10;;;;;;;;;;;;;;;18.72;42.89;101741.34;5043857;28;1243;-64
2022/05/20 08:56:37;;;;;;;;;;;;;;;18.62;43.63;101738.50;5052699;28;1906;-64
2022/05/20 08:59:03;;;;;;;;;;;;;;;18.77;44.58;101746.06;5075117;28;961;-63
2022/05/20 09:01:30;;;;;;;;;;;;;;;18.97;45.78;101734.34;5072300;28;828;-60
2022/05/20 09:03:55;;;;;;;;;;;;;;;19.18;47.40;101734.47;5075380;28;834;-61
2022/05/20 09:06:21;;;;;;;;;;;;;;;19.35;48.31;101737.88;5071475;28;805;-62
2022/05/20 09:09:00;;;;;;;;;;;;;;;19.47;49.06;101732.97;5056040;28;794;-65
2022/05/20 09:11:26;;;;;;;;;;;;;;;19.55;49.48;101730.78;5055750;28;873;-63
2022/05/20 09:16:36;;;;;;;;;;;;;;;19.64;49.71;101740.19;5040859;28;1902;-63
2022/05/20 09:19:08;;;;;;;;;;;;;;;19.38;48.41;101723.56;5062199;28;796;-66
2022/05/20 09:21:36;;;;;;;;;;;;;;;18.76;47.63;101717.69;5061300;28;786;-67
2022/05/20 09:24:03;;;;;;;;;;;;;;;18.89;45.22;101710.91;5060017;28;1020;-65
2022/05/20 09:26:39;;;;;;;;;;;;;;;18.73;43.77;101715.47;5061694;28;865;-67
2022/05/20 09:29:10;;;;;;;;;;;;;;;18.59;42.90;101717.00;5037978;28;926;-67
2022/05/20 09:31:36;;;;;;;;;;;;;;;18.58;42.69;101709.81;5064120;28;853;-66
2022/05/20 09:34:13;;;;;;;;;;;;;;;18.78;44.03;101715.47;5055457;28;754;-66
2022/05/20 09:36:47;;;;;;;;;;;;;;;18.97;45.55;101702.13;5059039;28;1973;-66
2022/05/20 09:39:17;;;;;;;;;;;;;;;19.15;46.80;101698.09;5040787;28;846;-65
2022/05/20 09:41:43;;;;;;;;;;;;;;;19.51;48.76;101696.56;5059446;28;953;-65
2022/05/20 09:44:09;;;;;;;;;;;;;;;19.69;50.47;101698.00;5062074;28;904;-66
2022/05/20 09:46:45;;;;;;;;;;;;;;;19.73;51.72;101690.84;5046536;28;1121;-67
2022/05/20 09:49:26;;;;;;;;;;;;;;;19.76;52.75;101691.09;5041184;28;874;-66
2022/05/20 09:51:54;;;;;;;;;;;;;;;17.99;57.99;101694.19;5053752;28;858;-64
2022/05/20 09:54:20;;;;;;;;;;;;;;;19.04;55.28;101690.88;5059241;28;729;-65
2022/05/20 09:56:46;;;;;;;;;;;;;;;19.51;53.05;101677.25;5061958;28;1973;-66
2022/05/20 09:59:15;;;;;;;;;;;;;;;19.47;52.90;101680.56;5077873;28;931;-66
2022/05/20 10:01:40;;;;;;;;;;;;;;;19.11;52.59;101674.06;5060314;28;1116;-66
2022/05/20 10:04:07;;;;;;;;;;;;;;;18.74;50.37;101669.44;5070156;28;1115;-64
2022/05/20 10:06:45;;;;;;;;;;;;;;;18.40;49.90;101669.78;5072092;28;1071;-63
2022/05/20 10:09:10;;;;;;;;;;;;;;;18.73;46.63;101662.28;5050084;28;1191;-64
2022/05/20 10:11:54;;;;;;;;;;;;;;;18.77;45.41;101660.63;5068872;28;1183;-64
2022/05/20 10:14:21;;;;;;;;;;;;;;;18.73;44.45;101663.13;5068837;28;1312;-65
2022/05/20 10:17:02;;;;;;;;;;;;;;;18.63;44.25;101652.03;5050428;28;1905;-66
2022/05/20 10:19:50;;;;;;;;;;;;;;;18.70;43.64;101652.59;5069732;28;1261;-66
2022/05/20 10:22:34;;;;;;;;;;;;;;;18.65;43.55;101647.09;5066646;28;1186;-65
2022/05/20 10:25:03;;;;;;;;;;;;;;;18.67;43.71;101642.13;5068880;28;1454;-66
2022/05/20 10:27:58;;;;;;;;;;;;;;;18.65;44.13;101644.34;5069920;28;1230;-65
2022/05/20 10:33:35;;;;;;;;;;;;;;;18.70;44.28;101641.59;5069094;28;1252;-66
2022/05/20 10:36:00;;;;;;;;;;;;;;;18.74;44.40;101634.44;5049858;28;1982;-63
2022/05/20 10:38:26;;;;;;;;;;;;;;;18.76;44.34;101629.50;5069597;28;1452;-65
2022/05/20 10:40:58;;;;;;;;;;;;;;;18.79;44.55;101628.16;5069236;28;1194;-67
2022/05/20 10:48:34;;;;;;;;;;;;;;;18.84;44.78;101630.09;5069344;28;1044;-65
2022/05/20 10:49:05;;;;;;;;;;;;;;;18.84;44.45;101613.56;5071099;28;1138;-65
2022/05/20 10:51:30;;;;;;;;;;;;;;;18.77;44.58;101606.34;5064239;28;1198;-65
2022/05/20 10:53:58;;;;;;;;;;;;;;;18.77;44.39;101614.63;5068951;28;1261;-66
2022/05/20 10:56:24;;;;;;;;;;;;;;;18.85;44.39;101615.22;5068611;28;1922;-63
2022/05/20 10:58:58;;;;;;;;;;;;;;;18.87;44.15;101608.34;5069761;28;1305;-64
2022/05/20 11:01:42;;;;;;;;;;;;;;;18.80;44.33;101605.00;5071075;28;1032;-63
2022/05/20 11:04:31;;;;;;;;;;;;;;;18.83;43.94;101606.38;5067764;28;1221;-64
2022/05/20 11:06:57;;;;;;;;;;;;;;;18.84;44.36;101594.28;5063579;28;1387;-66
2022/05/20 11:09:22;;;;;;;;;;;;;;;18.85;44.15;101584.91;5073136;28;1395;-68
2022/05/20 11:11:54;;;;;;;;;;;;;;;18.81;44.06;101584.63;5076076;28;1296;-68
2022/05/20 11:14:27;;;;;;;;;;;;;;;18.86;44.21;101584.66;5069984;28;1380;-62
2022/05/20 11:17:22;;;;;;;;;;;;;;;18.84;43.90;101586.00;5047960;28;1994;-64
2022/05/20 11:19:59;;;;;;;;;;;;;;;18.79;43.93;101579.38;4982038;28;1286;-64
2022/05/20 11:22:44;;;;;;;;;;;;;;;18.80;44.29;101578.28;5072395;28;1370;-64
2022/05/20 11:25:14;;;;;;;;;;;;;;;18.75;44.00;101575.50;5053236;28;1170;-63
2022/05/20 11:27:45;;;;;;;;;;;;;;;18.80;43.98;101569.16;5052718;28;1360;-63
2022/05/20 11:30:13;;;;;;;;;;;;;;;18.81;44.47;101566.16;5072279;28;1134;-64
2022/05/20 11:32:48;;;;;;;;;;;;;;;19.05;45.27;101576.72;5072738;28;1178;-62
2022/05/20 11:35:32;;;;;;;;;;;;;;;19.25;46.15;101575.13;5073893;28;1903;-62
2022/05/20 11:37:58;;;;;;;;;;;;;;;19.40;46.96;101571.59;5068989;28;1328;-61
2022/05/20 11:40:39;;;;;;;;;;;;;;;19.31;47.71;101558.34;5073335;28;1166;-60
2022/05/20 11:43:07;;;;;;;;;;;;;;;19.26;48.47;101560.25;5073770;28;1090;-61
2022/05/20 11:45:42;;;;;;;;;;;;;;;18.38;49.15;101550.81;5071694;28;1344;-60
2022/05/20 11:48:11;;;;;;;;;;;;;;;18.21;47.80;101546.28;5054193;28;1123;-60
2022/05/20 11:50:36;;;;;;;;;;;;;;;18.69;44.92;101542.69;5075477;28;1308;-62
2022/05/20 11:53:17;;;;;;;;;;;;;;;18.56;43.35;101544.81;5073737;28;1280;-59
2022/05/20 11:55:50;;;;;;;;;;;;;;;18.37;42.30;101540.88;5075335;28;1967;-59
2022/05/20 11:58:24;;;;;;;;;;;;;;;18.34;41.44;101542.25;5049717;28;1348;-58
2022/05/20 12:00:50;;;;;;;;;;;;;;;18.42;41.93;101547.22;5063206;28;1403;-61
2022/05/20 12:03:16;;;;;;;;;;;;;;;18.53;42.37;101541.78;5061575;28;889;-61
2022/05/20 12:05:43;;;;;;;;;;;;;;;18.54;42.85;101537.94;5044469;28;899;-62
2022/05/20 12:08:08;;;;;;;;;;;;;;;18.68;43.83;101536.34;5057162;28;911;-60
2022/05/20 12:10:38;;;;;;;;;;;;;;;18.98;45.29;101526.56;5038312;28;1366;-61
2022/05/20 12:13:08;;;;;;;;;;;;;;;19.29;46.12;101537.63;5056331;28;802;-62
2022/05/20 12:15:40;;;;;;;;;;;;;;;19.11;47.43;101528.81;5059603;28;1898;-61
2022/05/20 12:24:13;;;;;;;;;;;;;;;18.49;51.09;101510.38;5075933;28;818;-63
2022/05/20 12:26:46;;;;;;;;;;;;;;;19.20;49.43;101517.25;5075226;28;881;-61
2022/05/20 12:29:30;;;;;;;;;;;;;;;19.12;49.92;101502.06;5073186;28;909;-63
2022/05/20 12:31:55;;;;;;;;;;;;;;;19.22;49.91;101513.09;5063784;28;904;-62
2022/05/20 12:34:37;;;;;;;;;;;;;;;18.23;52.85;101494.56;5056881;28;930;-62
2022/05/20 12:37:03;;;;;;;;;;;;;;;18.37;52.94;101500.41;5038372;28;1910;-63
2022/05/20 12:39:48;;;;;;;;;;;;;;;19.18;49.94;101491.84;5056273;28;908;-64
2022/05/20 12:42:19;;;;;;;;;;;;;;;19.40;50.16;101489.66;5056307;28;1111;-65
2022/05/20 12:44:44;;;;;;;;;;;;;;;19.15;50.75;101496.84;5070655;28;1162;-62
2022/05/20 12:47:16;;;;;;;;;;;;;;;19.07;50.93;101491.84;5063358;28;1005;-60
2022/05/20 12:49:47;;;;;;;;;;;;;;;17.85;54.54;101481.91;5071189;28;1051;-64
2022/05/20 12:52:22;;;;;;;;;;;;;;;18.99;51.42;101481.38;5070797;28;1126;-64
2022/05/20 12:54:48;;;;;;;;;;;;;;;19.41;50.80;101485.00;5065209;28;1269;-62
2022/05/20 12:57:14;;;;;;;;;;;;;;;19.13;51.47;101476.97;5062021;28;1913;-62
2022/05/20 12:59:40;;;;;;;;;;;;;;;19.25;51.50;101486.91;5066375;28;1241;-63
2022/05/20 13:02:11;;;;;;;;;;;;;;;17.88;54.84;101475.88;5049154;28;1041;-63
2022/05/20 13:04:41;;;;;;;;;;;;;;;19.06;51.58;101478.34;5063527;28;1309;-62
2022/05/20 13:07:11;;;;;;;;;;;;;;;19.24;51.03;101469.53;5075584;28;781;-64
2022/05/20 13:09:38;;;;;;;;;;;;;;;19.12;51.55;101472.53;5047464;28;762;-61
2022/05/20 13:12:04;;;;;;;;;;;;;;;18.91;51.63;101459.84;5060020;28;951;-61
2022/05/20 13:14:30;;;;;;;;;;;;;;;17.54;55.76;101455.00;5041995;28;1195;-62
2022/05/20 13:16:56;;;;;;;;;;;;;;;18.91;51.96;101466.19;5065390;28;1914;-62
2022/05/20 13:19:40;;;;;;;;;;;;;;;19.35;50.28;101459.34;5059615;28;806;-61
2022/05/20 13:22:06;;;;;;;;;;;;;;;19.36;50.53;101460.97;5062384;28;892;-63
2022/05/20 13:24:34;;;;;;;;;;;;;;;19.27;50.79;101457.13;5060121;28;932;-62
2022/05/20 13:27:06;;;;;;;;;;;;;;;18.97;51.65;101453.22;5059664;28;830;-62
2022/05/20 13:29:31;;;;;;;;;;;;;;;17.54;54.27;101443.19;5041641;28;1076;-63
2022/05/20 13:32:13;;;;;;;;;;;;;;;16.84;56.34;101446.66;5060022;28;893;-64